sensor_id;sensor_type;location;lat;lon;timestamp;P1;durP1;ratioP1;P2;durP2;ratioP2
49392;SDS011;35268;42.642;23.308;2023-04-01T00:00:19;18.10;;;3.95;;
49392;SDS011;35268;42.642;23.308;2023-04-01T00:02:45;11.95;;;4.50;;
49392;SDS011;35268;42.642;23.308;2023-04-01T00:05:10;15.73;;;4.97;;
49392;SDS011;35268;42.642;23.308;2023-04-01T00:07:37;11.05;;;4.07;;
49392;SDS011;35268;42.642;23.308;2023-04-01T00:10:04;15.80;;;4.57;;
49392;SDS011;35268;42.642;23.308;2023-04-01T00:12:31;14.93;;;4.68;;
49392;SDS011;35268;42.642;23.308;2023-04-01T00:14:57;18.60;;;4.55;;
49392;SDS011;35268;42.642;23.308;2023-04-01T00:17:22;14.63;;;4.60;;
49392;SDS011;35268;42.642;23.308;2023-04-01T00:19:48;11.25;;;5.07;;
49392;SDS011;35268;42.642;23.308;2023-04-01T00:22:13;16.38;;;4.97;;
49392;SDS011;35268;42.642;23.308;2023-04-01T00:24:39;15.98;;;5.25;;
49392;SDS011;35268;42.642;23.308;2023-04-01T00:27:05;22.33;;;6.38;;
49392;SDS011;35268;42.642;23.308;2023-04-01T00:29:30;14.95;;;6.53;;
49392;SDS011;35268;42.642;23.308;2023-04-01T00:31:57;13.32;;;5.07;;
49392;SDS011;35268;42.642;23.308;2023-04-01T00:34:22;12.90;;;5.70;;
49392;SDS011;35268;42.642;23.308;2023-04-01T00:36:49;23.63;;;5.85;;
49392;SDS011;35268;42.642;23.308;2023-04-01T00:39:18;12.30;;;5.80;;
49392;SDS011;35268;42.642;23.308;2023-04-01T00:41:44;15.68;;;5.32;;
49392;SDS011;35268;42.642;23.308;2023-04-01T00:44:14;11.82;;;5.50;;
49392;SDS011;35268;42.642;23.308;2023-04-01T00:46:43;22.77;;;6.25;;
49392;SDS011;35268;42.642;23.308;2023-04-01T00:49:09;17.65;;;6.57;;
49392;SDS011;35268;42.642;23.308;2023-04-01T00:51:34;15.13;;;5.95;;
49392;SDS011;35268;42.642;23.308;2023-04-01T00:54:03;19.02;;;5.57;;
49392;SDS011;35268;42.642;23.308;2023-04-01T00:56:32;12.52;;;6.30;;
49392;SDS011;35268;42.642;23.308;2023-04-01T00:59:08;24.88;;;6.68;;
49392;SDS011;35268;42.642;23.308;2023-04-01T01:01:38;18.73;;;5.78;;
49392;SDS011;35268;42.642;23.308;2023-04-01T01:04:03;11.55;;;6.00;;
49392;SDS011;35268;42.642;23.308;2023-04-01T01:20:19;8.32;;;3.25;;
49392;SDS011;35268;42.642;23.308;2023-04-01T01:25:44;13.20;;;3.45;;
49392;SDS011;35268;42.642;23.308;2023-04-01T01:28:44;13.90;;;3.63;;
49392;SDS011;35268;42.642;23.308;2023-04-01T01:36:53;7.90;;;3.38;;
49392;SDS011;35268;42.642;23.308;2023-04-01T01:39:25;12.10;;;3.25;;
49392;SDS011;35268;42.642;23.308;2023-04-01T01:41:55;13.05;;;3.75;;
49392;SDS011;35268;42.642;23.308;2023-04-01T01:44:22;11.60;;;3.88;;
49392;SDS011;35268;42.642;23.308;2023-04-01T01:46:51;8.23;;;3.45;;
49392;SDS011;35268;42.642;23.308;2023-04-01T01:49:17;12.85;;;3.63;;
49392;SDS011;35268;42.642;23.308;2023-04-01T01:51:43;13.50;;;3.40;;
49392;SDS011;35268;42.642;23.308;2023-04-01T01:54:16;17.50;;;3.65;;
49392;SDS011;35268;42.642;23.308;2023-04-01T01:56:44;9.52;;;3.90;;
49392;SDS011;35268;42.642;23.308;2023-04-01T01:59:12;9.38;;;4.43;;
49392;SDS011;35268;42.642;23.308;2023-04-01T02:01:42;12.98;;;5.03;;
49392;SDS011;35268;42.642;23.308;2023-04-01T02:04:10;13.65;;;3.83;;
49392;SDS011;35268;42.642;23.308;2023-04-01T02:06:38;13.32;;;3.53;;
49392;SDS011;35268;42.642;23.308;2023-04-01T02:09:08;9.43;;;3.60;;
49392;SDS011;35268;42.642;23.308;2023-04-01T02:11:43;14.25;;;3.58;;
49392;SDS011;35268;42.642;23.308;2023-04-01T02:14:25;14.43;;;3.65;;
49392;SDS011;35268;42.642;23.308;2023-04-01T02:17:07;8.98;;;3.08;;
49392;SDS011;35268;42.642;23.308;2023-04-01T02:19:37;16.38;;;3.90;;
49392;SDS011;35268;42.642;23.308;2023-04-01T02:22:07;14.95;;;3.20;;
49392;SDS011;35268;42.642;23.308;2023-04-01T02:24:36;12.70;;;3.33;;
49392;SDS011;35268;42.642;23.308;2023-04-01T02:27:05;13.52;;;3.53;;
49392;SDS011;35268;42.642;23.308;2023-04-01T02:29:30;17.95;;;3.65;;
49392;SDS011;35268;42.642;23.308;2023-04-01T02:31:56;15.55;;;3.53;;
49392;SDS011;35268;42.642;23.308;2023-04-01T02:34:23;10.30;;;3.67;;
49392;SDS011;35268;42.642;23.308;2023-04-01T02:36:50;9.80;;;2.75;;
49392;SDS011;35268;42.642;23.308;2023-04-01T02:39:16;9.05;;;3.15;;
49392;SDS011;35268;42.642;23.308;2023-04-01T02:41:43;16.05;;;5.05;;
49392;SDS011;35268;42.642;23.308;2023-04-01T02:44:10;10.85;;;3.58;;
49392;SDS011;35268;42.642;23.308;2023-04-01T02:46:37;15.88;;;3.42;;
49392;SDS011;35268;42.642;23.308;2023-04-01T02:49:02;7.57;;;3.47;;
49392;SDS011;35268;42.642;23.308;2023-04-01T02:51:28;14.15;;;3.53;;
49392;SDS011;35268;42.642;23.308;2023-04-01T02:53:53;11.40;;;3.15;;
49392;SDS011;35268;42.642;23.308;2023-04-01T02:56:19;8.40;;;4.15;;
49392;SDS011;35268;42.642;23.308;2023-04-01T02:58:45;11.55;;;2.95;;
49392;SDS011;35268;42.642;23.308;2023-04-01T03:01:11;16.48;;;4.20;;
49392;SDS011;35268;42.642;23.308;2023-04-01T03:03:37;11.20;;;4.53;;
49392;SDS011;35268;42.642;23.308;2023-04-01T03:06:06;9.88;;;3.13;;
49392;SDS011;35268;42.642;23.308;2023-04-01T03:08:35;9.68;;;3.05;;
49392;SDS011;35268;42.642;23.308;2023-04-01T03:11:01;15.05;;;3.28;;
49392;SDS011;35268;42.642;23.308;2023-04-01T03:13:27;7.93;;;2.97;;
49392;SDS011;35268;42.642;23.308;2023-04-01T03:15:52;8.85;;;3.03;;
49392;SDS011;35268;42.642;23.308;2023-04-01T03:18:18;8.15;;;3.00;;
49392;SDS011;35268;42.642;23.308;2023-04-01T03:20:43;7.75;;;3.25;;
49392;SDS011;35268;42.642;23.308;2023-04-01T03:23:09;12.65;;;3.60;;
49392;SDS011;35268;42.642;23.308;2023-04-01T03:25:35;26.88;;;3.50;;
49392;SDS011;35268;42.642;23.308;2023-04-01T03:28:00;13.90;;;3.15;;
49392;SDS011;35268;42.642;23.308;2023-04-01T03:30:27;6.25;;;2.83;;
49392;SDS011;35268;42.642;23.308;2023-04-01T03:32:53;18.92;;;3.08;;
49392;SDS011;35268;42.642;23.308;2023-04-01T03:35:18;12.30;;;3.28;;
49392;SDS011;35268;42.642;23.308;2023-04-01T03:37:44;13.82;;;3.60;;
49392;SDS011;35268;42.642;23.308;2023-04-01T03:40:09;9.27;;;2.67;;
49392;SDS011;35268;42.642;23.308;2023-04-01T03:42:35;12.68;;;3.83;;
49392;SDS011;35268;42.642;23.308;2023-04-01T03:45:01;16.00;;;3.47;;
49392;SDS011;35268;42.642;23.308;2023-04-01T03:47:28;18.58;;;3.97;;
49392;SDS011;35268;42.642;23.308;2023-04-01T03:49:53;7.38;;;3.08;;
49392;SDS011;35268;42.642;23.308;2023-04-01T03:52:19;13.95;;;3.80;;
49392;SDS011;35268;42.642;23.308;2023-04-01T03:54:44;8.10;;;3.08;;
49392;SDS011;35268;42.642;23.308;2023-04-01T03:57:10;12.90;;;3.13;;
49392;SDS011;35268;42.642;23.308;2023-04-01T03:59:35;13.23;;;2.85;;
49392;SDS011;35268;42.642;23.308;2023-04-01T04:02:01;9.68;;;3.25;;
49392;SDS011;35268;42.642;23.308;2023-04-01T04:04:27;10.02;;;3.25;;
49392;SDS011;35268;42.642;23.308;2023-04-01T04:06:53;10.18;;;3.42;;
49392;SDS011;35268;42.642;23.308;2023-04-01T04:09:19;9.20;;;2.75;;
49392;SDS011;35268;42.642;23.308;2023-04-01T04:11:44;10.80;;;3.17;;
49392;SDS011;35268;42.642;23.308;2023-04-01T04:14:10;15.68;;;4.85;;
49392;SDS011;35268;42.642;23.308;2023-04-01T04:16:35;7.13;;;3.33;;
49392;SDS011;35268;42.642;23.308;2023-04-01T04:19:02;14.10;;;4.05;;
49392;SDS011;35268;42.642;23.308;2023-04-01T04:21:28;12.50;;;3.53;;
49392;SDS011;35268;42.642;23.308;2023-04-01T04:23:53;6.75;;;2.50;;
49392;SDS011;35268;42.642;23.308;2023-04-01T04:26:18;8.02;;;2.40;;
49392;SDS011;35268;42.642;23.308;2023-04-01T04:28:44;7.30;;;1.90;;
49392;SDS011;35268;42.642;23.308;2023-04-01T04:31:10;10.02;;;2.25;;
49392;SDS011;35268;42.642;23.308;2023-04-01T04:33:35;12.05;;;3.88;;
49392;SDS011;35268;42.642;23.308;2023-04-01T04:36:01;11.75;;;3.40;;
49392;SDS011;35268;42.642;23.308;2023-04-01T04:38:28;13.00;;;4.07;;
49392;SDS011;35268;42.642;23.308;2023-04-01T04:40:53;10.55;;;4.38;;
49392;SDS011;35268;42.642;23.308;2023-04-01T04:43:19;18.83;;;5.93;;
49392;SDS011;35268;42.642;23.308;2023-04-01T04:45:45;15.95;;;4.30;;
49392;SDS011;35268;42.642;23.308;2023-04-01T04:48:11;17.27;;;5.05;;
49392;SDS011;35268;42.642;23.308;2023-04-01T04:50:41;12.57;;;4.45;;
49392;SDS011;35268;42.642;23.308;2023-04-01T04:53:16;22.23;;;5.55;;
49392;SDS011;35268;42.642;23.308;2023-04-01T04:55:44;15.98;;;4.85;;
49392;SDS011;35268;42.642;23.308;2023-04-01T04:58:10;9.68;;;4.35;;
49392;SDS011;35268;42.642;23.308;2023-04-01T05:00:36;16.95;;;4.30;;
49392;SDS011;35268;42.642;23.308;2023-04-01T05:03:01;17.38;;;4.43;;
49392;SDS011;35268;42.642;23.308;2023-04-01T05:05:27;15.27;;;5.18;;
49392;SDS011;35268;42.642;23.308;2023-04-01T05:07:52;14.60;;;5.38;;
49392;SDS011;35268;42.642;23.308;2023-04-01T05:10:18;19.05;;;6.05;;
49392;SDS011;35268;42.642;23.308;2023-04-01T05:12:45;14.10;;;4.50;;
49392;SDS011;35268;42.642;23.308;2023-04-01T05:15:11;12.80;;;4.30;;
49392;SDS011;35268;42.642;23.308;2023-04-01T05:17:36;11.90;;;4.68;;
49392;SDS011;35268;42.642;23.308;2023-04-01T05:20:02;12.07;;;4.38;;
49392;SDS011;35268;42.642;23.308;2023-04-01T05:22:28;10.40;;;4.13;;
49392;SDS011;35268;42.642;23.308;2023-04-01T05:24:53;12.73;;;4.22;;
49392;SDS011;35268;42.642;23.308;2023-04-01T05:27:19;11.95;;;4.28;;
49392;SDS011;35268;42.642;23.308;2023-04-01T05:29:44;12.75;;;5.03;;
49392;SDS011;35268;42.642;23.308;2023-04-01T05:32:10;16.23;;;5.40;;
49392;SDS011;35268;42.642;23.308;2023-04-01T05:34:35;17.02;;;5.47;;
49392;SDS011;35268;42.642;23.308;2023-04-01T05:37:00;13.90;;;5.43;;
49392;SDS011;35268;42.642;23.308;2023-04-01T05:39:26;19.58;;;6.30;;
49392;SDS011;35268;42.642;23.308;2023-04-01T05:41:51;19.10;;;6.20;;
49392;SDS011;35268;42.642;23.308;2023-04-01T05:44:17;16.75;;;6.55;;
49392;SDS011;35268;42.642;23.308;2023-04-01T05:46:42;14.00;;;5.88;;
49392;SDS011;35268;42.642;23.308;2023-04-01T05:49:08;13.52;;;5.97;;
49392;SDS011;35268;42.642;23.308;2023-04-01T05:51:33;22.67;;;6.18;;
49392;SDS011;35268;42.642;23.308;2023-04-01T05:53:59;16.15;;;7.22;;
49392;SDS011;35268;42.642;23.308;2023-04-01T05:56:24;14.55;;;6.05;;
49392;SDS011;35268;42.642;23.308;2023-04-01T05:58:53;18.33;;;6.07;;
49392;SDS011;35268;42.642;23.308;2023-04-01T06:01:19;28.30;;;7.18;;
49392;SDS011;35268;42.642;23.308;2023-04-01T06:03:45;17.33;;;6.22;;
49392;SDS011;35268;42.642;23.308;2023-04-01T06:06:15;15.80;;;4.82;;
49392;SDS011;35268;42.642;23.308;2023-04-01T06:08:48;19.20;;;5.22;;
49392;SDS011;35268;42.642;23.308;2023-04-01T06:36:32;17.88;;;4.80;;
49392;SDS011;35268;42.642;23.308;2023-04-01T06:41:53;15.48;;;4.05;;
49392;SDS011;35268;42.642;23.308;2023-04-01T06:44:23;14.73;;;3.33;;
49392;SDS011;35268;42.642;23.308;2023-04-01T06:47:10;14.63;;;3.50;;
49392;SDS011;35268;42.642;23.308;2023-04-01T06:55:41;11.10;;;3.28;;
49392;SDS011;35268;42.642;23.308;2023-04-01T06:58:13;12.05;;;3.88;;
49392;SDS011;35268;42.642;23.308;2023-04-01T07:00:48;9.40;;;3.15;;
49392;SDS011;35268;42.642;23.308;2023-04-01T07:03:23;17.60;;;4.00;;
49392;SDS011;35268;42.642;23.308;2023-04-01T07:05:58;12.63;;;3.72;;
49392;SDS011;35268;42.642;23.308;2023-04-01T07:08:28;16.20;;;3.55;;
49392;SDS011;35268;42.642;23.308;2023-04-01T07:13:36;15.45;;;4.00;;
49392;SDS011;35268;42.642;23.308;2023-04-01T07:19:16;17.30;;;5.60;;
49392;SDS011;35268;42.642;23.308;2023-04-01T07:21:55;11.18;;;3.50;;
49392;SDS011;35268;42.642;23.308;2023-04-01T07:24:26;12.15;;;4.53;;
49392;SDS011;35268;42.642;23.308;2023-04-01T07:26:55;12.70;;;4.82;;
49392;SDS011;35268;42.642;23.308;2023-04-01T07:29:22;15.13;;;4.38;;
49392;SDS011;35268;42.642;23.308;2023-04-01T07:35:00;9.63;;;4.35;;
49392;SDS011;35268;42.642;23.308;2023-04-01T07:45:50;10.52;;;3.95;;
49392;SDS011;35268;42.642;23.308;2023-04-01T07:51:37;12.10;;;4.53;;
49392;SDS011;35268;42.642;23.308;2023-04-01T07:54:10;12.07;;;4.07;;
49392;SDS011;35268;42.642;23.308;2023-04-01T08:16:09;14.27;;;4.60;;
49392;SDS011;35268;42.642;23.308;2023-04-01T08:22:01;9.88;;;3.75;;
49392;SDS011;35268;42.642;23.308;2023-04-01T08:24:37;19.52;;;4.78;;
49392;SDS011;35268;42.642;23.308;2023-04-01T08:27:11;7.43;;;2.03;;
49392;SDS011;35268;42.642;23.308;2023-04-01T08:30:01;15.05;;;4.57;;
49392;SDS011;35268;42.642;23.308;2023-04-01T08:32:40;15.40;;;3.97;;
49392;SDS011;35268;42.642;23.308;2023-04-01T08:37:38;14.43;;;2.38;;
49392;SDS011;35268;42.642;23.308;2023-04-01T08:50:43;14.57;;;3.78;;
49392;SDS011;35268;42.642;23.308;2023-04-01T09:04:26;20.23;;;3.10;;
49392;SDS011;35268;42.642;23.308;2023-04-01T09:07:06;13.18;;;3.33;;
49392;SDS011;35268;42.642;23.308;2023-04-01T09:21:37;14.07;;;3.10;;
49392;SDS011;35268;42.642;23.308;2023-04-01T09:27:56;8.75;;;2.50;;
49392;SDS011;35268;42.642;23.308;2023-04-01T09:33:42;18.63;;;3.20;;
49392;SDS011;35268;42.642;23.308;2023-04-01T09:39:41;9.50;;;2.80;;
49392;SDS011;35268;42.642;23.308;2023-04-01T09:59:47;12.63;;;2.38;;
49392;SDS011;35268;42.642;23.308;2023-04-01T10:50:23;9.25;;;1.58;;
49392;SDS011;35268;42.642;23.308;2023-04-01T11:04:32;6.55;;;1.45;;
49392;SDS011;35268;42.642;23.308;2023-04-01T11:10:11;5.00;;;1.55;;
49392;SDS011;35268;42.642;23.308;2023-04-01T11:30:10;13.70;;;1.90;;
49392;SDS011;35268;42.642;23.308;2023-04-01T11:38:07;7.75;;;1.58;;
49392;SDS011;35268;42.642;23.308;2023-04-01T11:43:37;8.10;;;1.92;;
49392;SDS011;35268;42.642;23.308;2023-04-01T11:46:15;3.80;;;1.15;;
49392;SDS011;35268;42.642;23.308;2023-04-01T11:54:14;10.43;;;2.10;;
49392;SDS011;35268;42.642;23.308;2023-04-01T11:59:37;6.78;;;2.03;;
49392;SDS011;35268;42.642;23.308;2023-04-01T12:02:15;12.32;;;2.17;;
49392;SDS011;35268;42.642;23.308;2023-04-01T12:05:18;6.57;;;2.17;;
49392;SDS011;35268;42.642;23.308;2023-04-01T12:08:06;13.52;;;2.95;;
49392;SDS011;35268;42.642;23.308;2023-04-01T12:11:04;9.68;;;2.72;;
49392;SDS011;35268;42.642;23.308;2023-04-01T12:19:44;10.93;;;3.35;;
49392;SDS011;35268;42.642;23.308;2023-04-01T12:27:41;4.60;;;1.83;;
49392;SDS011;35268;42.642;23.308;2023-04-01T12:33:10;8.02;;;1.60;;
49392;SDS011;35268;42.642;23.308;2023-04-01T12:36:09;6.88;;;1.75;;
49392;SDS011;35268;42.642;23.308;2023-04-01T12:49:34;6.65;;;1.95;;
49392;SDS011;35268;42.642;23.308;2023-04-01T12:52:11;4.75;;;2.05;;
49392;SDS011;35268;42.642;23.308;2023-04-01T13:11:21;5.07;;;1.48;;
49392;SDS011;35268;42.642;23.308;2023-04-01T13:14:04;4.15;;;0.93;;
49392;SDS011;35268;42.642;23.308;2023-04-01T13:16:57;1.45;;;0.73;;
49392;SDS011;35268;42.642;23.308;2023-04-01T13:19:36;2.63;;;0.88;;
49392;SDS011;35268;42.642;23.308;2023-04-01T13:25:06;6.63;;;1.40;;
49392;SDS011;35268;42.642;23.308;2023-04-01T13:27:43;3.33;;;2.03;;
49392;SDS011;35268;42.642;23.308;2023-04-01T13:32:42;4.05;;;1.85;;
49392;SDS011;35268;42.642;23.308;2023-04-01T13:35:45;6.88;;;2.22;;
49392;SDS011;35268;42.642;23.308;2023-04-01T13:41:11;7.28;;;1.95;;
49392;SDS011;35268;42.642;23.308;2023-04-01T13:43:45;2.65;;;1.00;;
49392;SDS011;35268;42.642;23.308;2023-04-01T14:00:10;1.48;;;0.60;;
49392;SDS011;35268;42.642;23.308;2023-04-01T14:11:04;2.00;;;0.68;;
49392;SDS011;35268;42.642;23.308;2023-04-01T14:14:04;3.35;;;0.98;;
49392;SDS011;35268;42.642;23.308;2023-04-01T14:19:24;2.90;;;0.80;;
49392;SDS011;35268;42.642;23.308;2023-04-01T14:22:05;4.35;;;1.38;;
49392;SDS011;35268;42.642;23.308;2023-04-01T14:24:59;2.38;;;1.00;;
49392;SDS011;35268;42.642;23.308;2023-04-01T14:30:23;3.03;;;1.48;;
49392;SDS011;35268;42.642;23.308;2023-04-01T14:33:15;5.60;;;0.80;;
49392;SDS011;35268;42.642;23.308;2023-04-01T14:50:17;0.80;;;0.50;;
49392;SDS011;35268;42.642;23.308;2023-04-01T14:52:52;3.15;;;0.93;;
49392;SDS011;35268;42.642;23.308;2023-04-01T15:00:48;4.75;;;1.27;;
49392;SDS011;35268;42.642;23.308;2023-04-01T15:08:58;8.90;;;3.67;;
49392;SDS011;35268;42.642;23.308;2023-04-01T15:11:42;7.72;;;2.72;;
49392;SDS011;35268;42.642;23.308;2023-04-01T15:14:27;9.00;;;2.58;;
49392;SDS011;35268;42.642;23.308;2023-04-01T15:17:05;7.50;;;1.83;;
49392;SDS011;35268;42.642;23.308;2023-04-01T15:20:22;6.55;;;2.75;;
49392;SDS011;35268;42.642;23.308;2023-04-01T15:28:32;2.90;;;1.20;;
49392;SDS011;35268;42.642;23.308;2023-04-01T15:39:18;2.75;;;1.20;;
49392;SDS011;35268;42.642;23.308;2023-04-01T15:44:55;2.40;;;0.80;;
49392;SDS011;35268;42.642;23.308;2023-04-01T15:52:49;5.15;;;1.27;;
49392;SDS011;35268;42.642;23.308;2023-04-01T15:59:02;1.50;;;0.70;;
49392;SDS011;35268;42.642;23.308;2023-04-01T16:09:59;4.55;;;1.00;;
49392;SDS011;35268;42.642;23.308;2023-04-01T16:15:28;2.13;;;1.02;;
49392;SDS011;35268;42.642;23.308;2023-04-01T16:23:17;2.20;;;0.93;;
49392;SDS011;35268;42.642;23.308;2023-04-01T16:31:34;1.83;;;0.82;;
49392;SDS011;35268;42.642;23.308;2023-04-01T16:34:17;2.80;;;0.98;;
49392;SDS011;35268;42.642;23.308;2023-04-01T16:37:03;2.90;;;0.90;;
49392;SDS011;35268;42.642;23.308;2023-04-01T16:39:54;2.58;;;0.93;;
49392;SDS011;35268;42.642;23.308;2023-04-01T16:42:44;1.73;;;0.85;;
49392;SDS011;35268;42.642;23.308;2023-04-01T16:45:35;1.27;;;0.70;;
49392;SDS011;35268;42.642;23.308;2023-04-01T16:48:15;2.28;;;0.80;;
49392;SDS011;35268;42.642;23.308;2023-04-01T16:51:15;4.88;;;0.93;;
49392;SDS011;35268;42.642;23.308;2023-04-01T16:53:49;1.92;;;0.73;;
49392;SDS011;35268;42.642;23.308;2023-04-01T16:56:28;2.22;;;0.90;;
49392;SDS011;35268;42.642;23.308;2023-04-01T16:59:07;2.58;;;0.80;;
49392;SDS011;35268;42.642;23.308;2023-04-01T17:01:49;2.38;;;1.20;;
49392;SDS011;35268;42.642;23.308;2023-04-01T17:07:56;3.45;;;1.63;;
49392;SDS011;35268;42.642;23.308;2023-04-01T17:47:49;2.10;;;1.17;;
49392;SDS011;35268;42.642;23.308;2023-04-01T18:06:41;2.33;;;1.20;;
49392;SDS011;35268;42.642;23.308;2023-04-01T18:20:53;1.08;;;0.50;;
49392;SDS011;35268;42.642;23.308;2023-04-01T18:25:54;1.67;;;0.60;;
49392;SDS011;35268;42.642;23.308;2023-04-01T18:31:23;2.70;;;1.27;;
49392;SDS011;35268;42.642;23.308;2023-04-01T18:34:06;1.13;;;0.68;;
49392;SDS011;35268;42.642;23.308;2023-04-01T18:39:37;2.55;;;0.93;;
49392;SDS011;35268;42.642;23.308;2023-04-01T18:45:17;2.30;;;0.75;;
49392;SDS011;35268;42.642;23.308;2023-04-01T18:47:56;1.60;;;0.80;;
49392;SDS011;35268;42.642;23.308;2023-04-01T18:51:09;2.05;;;0.95;;
49392;SDS011;35268;42.642;23.308;2023-04-01T18:53:43;0.57;;;0.50;;
49392;SDS011;35268;42.642;23.308;2023-04-01T18:56:24;2.75;;;0.80;;
49392;SDS011;35268;42.642;23.308;2023-04-01T18:59:02;0.88;;;0.52;;
49392;SDS011;35268;42.642;23.308;2023-04-01T19:01:36;1.13;;;0.52;;
49392;SDS011;35268;42.642;23.308;2023-04-01T19:09:43;1.90;;;0.77;;
49392;SDS011;35268;42.642;23.308;2023-04-01T19:20:17;1.85;;;0.80;;
49392;SDS011;35268;42.642;23.308;2023-04-01T19:30:58;1.30;;;0.75;;
49392;SDS011;35268;42.642;23.308;2023-04-01T19:41:34;2.22;;;0.80;;
49392;SDS011;35268;42.642;23.308;2023-04-01T19:44:16;1.88;;;1.00;;
49392;SDS011;35268;42.642;23.308;2023-04-01T20:00:43;2.22;;;1.20;;
49392;SDS011;35268;42.642;23.308;2023-04-01T20:12:04;2.15;;;1.20;;
49392;SDS011;35268;42.642;23.308;2023-04-01T20:14:46;2.40;;;0.85;;
49392;SDS011;35268;42.642;23.308;2023-04-01T20:17:20;3.55;;;1.20;;
49392;SDS011;35268;42.642;23.308;2023-04-01T20:23:01;1.13;;;0.70;;
49392;SDS011;35268;42.642;23.308;2023-04-01T20:33:43;1.73;;;1.02;;
49392;SDS011;35268;42.642;23.308;2023-04-01T20:44:21;1.05;;;0.77;;
49392;SDS011;35268;42.642;23.308;2023-04-01T20:49:40;1.65;;;0.90;;
49392;SDS011;35268;42.642;23.308;2023-04-01T20:52:32;1.23;;;0.85;;
49392;SDS011;35268;42.642;23.308;2023-04-01T21:03:14;2.85;;;1.63;;
49392;SDS011;35268;42.642;23.308;2023-04-01T21:08:36;2.72;;;0.85;;
49392;SDS011;35268;42.642;23.308;2023-04-01T21:16:58;0.52;;;0.50;;
49392;SDS011;35268;42.642;23.308;2023-04-01T21:19:29;6.07;;;0.88;;
49392;SDS011;35268;42.642;23.308;2023-04-01T21:49:51;1.13;;;0.57;;
49392;SDS011;35268;42.642;23.308;2023-04-01T21:52:25;0.43;;;0.40;;
49392;SDS011;35268;42.642;23.308;2023-04-01T21:55:21;0.90;;;0.60;;
49392;SDS011;35268;42.642;23.308;2023-04-01T22:00:38;1.10;;;0.70;;
49392;SDS011;35268;42.642;23.308;2023-04-01T22:06:00;0.98;;;0.70;;
49392;SDS011;35268;42.642;23.308;2023-04-01T22:11:33;1.08;;;0.75;;
49392;SDS011;35268;42.642;23.308;2023-04-01T22:14:05;0.63;;;0.50;;
49392;SDS011;35268;42.642;23.308;2023-04-01T22:24:59;0.70;;;0.40;;
49392;SDS011;35268;42.642;23.308;2023-04-01T22:32:49;1.90;;;0.50;;
49392;SDS011;35268;42.642;23.308;2023-04-01T22:43:55;1.60;;;0.45;;
49392;SDS011;35268;42.642;23.308;2023-04-01T22:55:00;3.10;;;0.70;;
49392;SDS011;35268;42.642;23.308;2023-04-01T22:57:49;7.57;;;0.57;;
49392;SDS011;35268;42.642;23.308;2023-04-01T23:00:23;0.88;;;0.32;;
49392;SDS011;35268;42.642;23.308;2023-04-01T23:05:30;2.65;;;0.35;;
49392;SDS011;35268;42.642;23.308;2023-04-01T23:10:59;1.17;;;0.40;;
49392;SDS011;35268;42.642;23.308;2023-04-01T23:13:31;0.47;;;0.30;;
49392;SDS011;35268;42.642;23.308;2023-04-01T23:16:05;1.45;;;0.50;;
49392;SDS011;35268;42.642;23.308;2023-04-01T23:18:36;0.30;;;0.30;;
49392;SDS011;35268;42.642;23.308;2023-04-01T23:24:03;2.65;;;0.52;;
49392;SDS011;35268;42.642;23.308;2023-04-01T23:27:00;0.85;;;0.30;;
49392;SDS011;35268;42.642;23.308;2023-04-01T23:29:35;4.18;;;0.40;;
49392;SDS011;35268;42.642;23.308;2023-04-01T23:32:05;2.05;;;0.47;;
49392;SDS011;35268;42.642;23.308;2023-04-01T23:34:38;2.15;;;0.68;;
49392;SDS011;35268;42.642;23.308;2023-04-01T23:37:13;1.20;;;0.30;;
49392;SDS011;35268;42.642;23.308;2023-04-01T23:39:42;0.82;;;0.30;;
49392;SDS011;35268;42.642;23.308;2023-04-01T23:42:29;1.08;;;0.30;;
49392;SDS011;35268;42.642;23.308;2023-04-01T23:45:04;3.60;;;0.50;;
49392;SDS011;35268;42.642;23.308;2023-04-01T23:47:37;0.30;;;0.30;;
49392;SDS011;35268;42.642;23.308;2023-04-01T23:50:18;1.17;;;0.60;;
49392;SDS011;35268;42.642;23.308;2023-04-01T23:53:11;0.95;;;0.52;;
49392;SDS011;35268;42.642;23.308;2023-04-01T23:55:42;2.28;;;0.22;;
